Time;durP1;ratioP1;P1;durP2;ratioP2;P2;SDS_P1;SDS_P2;PMS_P1;PMS_P2;Temp;Humidity;BMP_temperature;BMP_pressure;BME280_temperature;BME280_humidity;BME280_pressure;Samples;Min_cycle;Max_cycle;Signal;HPM_P1;HPM_P2
2021/08/27 00:02:52;;;;;;;9.73;3.77;;;12.90;99.90;;;;;;20973499;28;20510;-80
2021/08/27 00:12:53;;;;;;;10.97;3.53;;;13.00;99.90;;;;;;20975418;28;20032;-80
2021/08/27 00:22:54;;;;;;;9.23;3.83;;;12.90;99.90;;;;;;20987314;28;20032;-80
2021/08/27 00:32:55;;;;;;;4.40;2.97;;;12.80;99.90;;;;;;20976175;28;20040;-79
2021/08/27 00:42:55;;;;;;;5.23;3.40;;;12.90;99.90;;;;;;21016091;28;20028;-78
2021/08/27 00:52:56;;;;;;;9.60;3.40;;;12.50;99.90;;;;;;21017721;28;20028;-80
2021/08/27 01:02:57;;;;;;;5.20;3.37;;;12.60;99.90;;;;;;21019972;28;20544;-80
2021/08/27 01:13:11;;;;;;;8.43;4.00;;;12.60;99.90;;;;;;21035665;28;20042;-78
2021/08/27 01:23:34;;;;;;;4.93;3.20;;;12.50;99.90;;;;;;21052739;28;20435;-80
2021/08/27 01:33:45;;;;;;;6.65;3.75;;;12.60;99.90;;;;;;20997419;28;20033;-79
2021/08/27 01:43:50;;;;;;;7.75;3.47;;;12.70;99.90;;;;;;21037185;28;20039;-81
2021/08/27 01:53:51;;;;;;;8.20;4.13;;;12.90;99.90;;;;;;21028817;28;20032;-80
2021/08/27 02:03:56;;;;;;;9.45;3.75;;;12.60;99.90;;;;;;21011261;28;20028;-80
2021/08/27 02:13:58;;;;;;;78.78;8.02;;;12.40;99.90;;;;;;21022189;28;20101;-77
2021/08/27 02:24:02;;;;;;;6.07;3.75;;;12.60;99.90;;;;;;20998631;28;20047;-79
2021/08/27 02:34:05;;;;;;;6.50;3.78;;;12.50;99.90;;;;;;21019917;28;20516;-79
2021/08/27 02:44:06;;;;;;;12.10;4.63;;;12.40;99.90;;;;;;21029791;28;20166;-80
2021/08/27 02:54:10;;;;;;;30.20;4.23;;;12.50;99.90;;;;;;21022348;28;20037;-80
2021/08/27 03:04:30;;;;;;;7.90;3.90;;;12.60;99.90;;;;;;20993905;28;20555;-80
2021/08/27 03:14:33;;;;;;;10.73;4.38;;;12.50;99.90;;;;;;21008940;28;20034;-80
2021/08/27 03:24:39;;;;;;;15.15;4.50;;;12.60;99.90;;;;;;21027293;28;20037;-81
2021/08/27 03:34:42;;;;;;;7.38;3.80;;;12.50;99.90;;;;;;21029375;28;20158;-80
2021/08/27 03:44:46;;;;;;;9.82;4.72;;;12.60;99.90;;;;;;21033985;28;20029;-80
2021/08/27 03:54:47;;;;;;;10.70;4.55;;;12.40;99.90;;;;;;21033081;28;20043;-79
2021/08/27 04:04:47;;;;;;;11.60;4.40;;;12.40;99.90;;;;;;21039681;28;20029;-81
2021/08/27 04:14:48;;;;;;;18.50;4.50;;;12.30;99.90;;;;;;21043750;28;20025;-80
2021/08/27 04:24:49;;;;;;;11.20;4.70;;;12.30;99.90;;;;;;21072841;28;20033;-81
2021/08/27 04:34:50;;;;;;;35.10;5.37;;;12.10;99.90;;;;;;20990694;28;20078;-79
2021/08/27 04:44:51;;;;;;;9.03;4.73;;;12.00;99.90;;;;;;20956574;22;20049;-77
2021/08/27 04:54:51;;;;;;;10.67;4.37;;;11.90;99.90;;;;;;20870044;28;20083;-79
2021/08/27 05:04:52;;;;;;;10.40;4.53;;;11.90;99.90;;;;;;20935853;28;20037;-80
2021/08/27 05:14:53;;;;;;;18.37;7.93;;;12.10;99.90;;;;;;20935533;28;20032;-79
2021/08/27 05:24:54;;;;;;;14.00;5.60;;;12.20;99.90;;;;;;20901751;28;20040;-79
2021/08/27 05:34:55;;;;;;;9.73;5.07;;;12.50;99.90;;;;;;20916385;28;20032;-80
2021/08/27 05:44:55;;;;;;;9.37;4.77;;;12.70;99.90;;;;;;20933652;28;20032;-78
2021/08/27 05:54:56;;;;;;;12.63;5.93;;;12.60;99.90;;;;;;20915795;28;20033;-78
2021/08/27 06:04:59;;;;;;;13.63;5.20;;;12.60;99.90;;;;;;20931507;28;20033;-79
2021/08/27 06:15:00;;;;;;;9.80;5.32;;;12.70;99.90;;;;;;20913683;28;20029;-79
2021/08/27 06:25:01;;;;;;;9.60;5.83;;;12.90;99.90;;;;;;20931393;28;20043;-77
2021/08/27 06:35:02;;;;;;;9.20;5.20;;;13.10;99.90;;;;;;20895299;28;20104;-79
2021/08/27 06:45:04;;;;;;;10.13;5.27;;;13.20;99.90;;;;;;20910875;28;20298;-79
2021/08/27 06:55:05;;;;;;;9.05;4.28;;;13.10;99.90;;;;;;20910386;28;20033;-80
2021/08/27 07:05:07;;;;;;;9.93;5.23;;;13.50;99.90;;;;;;20925730;28;20124;-78
2021/08/27 07:15:09;;;;;;;10.18;4.85;;;13.80;99.90;;;;;;20890246;28;20075;-80
2021/08/27 07:25:10;;;;;;;9.90;4.43;;;13.70;99.90;;;;;;20930650;28;20039;-80
2021/08/27 07:35:11;;;;;;;8.73;5.32;;;13.90;99.90;;;;;;20906722;28;20037;-78
2021/08/27 07:45:14;;;;;;;8.97;4.60;;;14.60;99.90;;;;;;20924604;28;20029;-79
2021/08/27 07:55:15;;;;;;;8.88;4.10;;;15.90;99.90;;;;;;20941746;28;20035;-78
2021/08/27 08:05:16;;;;;;;7.33;3.77;;;17.40;99.90;;;;;;20922188;28;20029;-78
2021/08/27 08:15:19;;;;;;;8.67;3.90;;;16.90;99.90;;;;;;20905497;28;20024;-79
2021/08/27 08:25:19;;;;;;;9.27;3.75;;;17.50;99.90;;;;;;20940650;28;20091;-79
2021/08/27 08:35:20;;;;;;;11.87;4.17;;;18.00;99.90;;;;;;20939320;28;20499;-78
2021/08/27 08:45:21;;;;;;;5.47;3.53;;;18.30;99.90;;;;;;20919410;28;20094;-80
2021/08/27 08:55:22;;;;;;;9.83;3.70;;;18.10;99.90;;;;;;20922536;28;20064;-78
2021/08/27 09:05:23;;;;;;;10.57;2.53;;;18.80;99.90;;;;;;20915416;28;20028;-79
2021/08/27 09:15:24;;;;;;;10.43;3.23;;;19.20;99.90;;;;;;20930925;28;20036;-79
2021/08/27 09:25:33;;;;;;;6.13;2.80;;;18.50;99.90;;;;;;20910876;28;20048;-79
2021/08/27 09:35:34;;;;;;;7.28;2.80;;;17.80;99.90;;;;;;20910540;28;20033;-78
2021/08/27 09:45:44;;;;;;;4.17;1.80;;;17.90;99.90;;;;;;20910712;28;20040;-79
2021/08/27 09:55:55;;;;;;;3.15;1.48;;;20.60;99.90;;;;;;20860489;28;20112;-80
2021/08/27 10:05:56;;;;;;;3.28;1.73;;;21.50;99.90;;;;;;20917037;28;20036;-78
2021/08/27 10:15:57;;;;;;;6.00;1.90;;;21.10;99.90;;;;;;20932056;28;20028;-77
2021/08/27 10:26:30;;;;;;;4.57;2.00;;;21.60;99.90;;;;;;20947503;28;20738;-77
2021/08/27 10:36:31;;;;;;;6.00;2.55;;;21.10;99.90;;;;;;20903956;28;20056;-77
2021/08/27 10:46:44;;;;;;;3.73;2.00;;;19.80;99.90;;;;;;21013462;22;20041;-82
2021/08/27 10:56:54;;;;;;;7.47;2.70;;;19.30;99.90;;;;;;21007822;28;20024;-83
2021/08/27 11:06:59;;;;;;;6.15;1.85;;;18.70;99.90;;;;;;21007441;28;20036;-83
2021/08/27 11:17:05;;;;;;;6.63;2.20;;;18.70;99.90;;;;;;21005344;28;20029;-83
2021/08/27 11:27:15;;;;;;;7.38;2.38;;;18.90;99.90;;;;;;20965709;28;20024;-82
2021/08/27 11:37:17;;;;;;;5.32;2.28;;;18.20;99.90;;;;;;20900260;28;20331;-82
2021/08/27 11:47:17;;;;;;;;;;;17.90;99.90;;;;;;20882196;28;20120;-81
2021/08/27 11:57:21;;;;;;;4.73;1.90;;;17.90;99.90;;;;;;20933059;28;19963;-82
2021/08/27 12:07:27;;;;;;;5.13;2.05;;;18.50;99.90;;;;;;20906463;28;20311;-80
2021/08/27 12:17:29;;;;;;;8.60;2.30;;;18.70;99.90;;;;;;20900408;28;20033;-84
2021/08/27 12:27:30;;;;;;;2.63;1.35;;;19.20;99.90;;;;;;20960239;28;20104;-79
2021/08/27 12:37:31;;;;;;;2.17;1.13;;;19.60;99.90;;;;;;20961817;28;20033;-79
2021/08/27 12:47:41;;;;;;;2.10;1.13;;;19.90;99.90;;;;;;20938933;28;20033;-79
2021/08/27 12:57:50;;;;;;;2.30;1.27;;;20.00;99.90;;;;;;20971141;28;20068;-80
2021/08/27 13:08:25;;;;;;;1.90;1.13;;;19.40;99.90;;;;;;20974603;28;20032;-81
2021/08/27 13:18:36;;;;;;;3.22;1.40;;;19.40;99.90;;;;;;20907331;28;20083;-81
2021/08/27 13:28:37;;;;;;;;;;;19.70;99.90;;;;;;20887755;28;20033;-82
2021/08/27 13:38:38;;;;;;;3.08;1.67;;;19.30;99.90;;;;;;20917314;28;20303;-82
2021/08/27 13:48:39;;;;;;;8.73;1.93;;;19.20;99.90;;;;;;20913094;28;20371;-81
2021/08/27 13:58:40;;;;;;;2.77;1.23;;;19.20;99.90;;;;;;20936871;28;20036;-80
2021/08/27 14:08:41;;;;;;;3.00;1.60;;;19.40;99.90;;;;;;20882736;28;20029;-80
2021/08/27 14:18:42;;;;;;;2.87;1.70;;;19.30;99.90;;;;;;20890727;28;20048;-78
2021/08/27 14:28:43;;;;;;;2.70;1.50;;;19.50;99.90;;;;;;20923156;28;20084;-80
2021/08/27 14:38:43;;;;;;;2.63;1.80;;;19.50;99.90;;;;;;20862492;28;20037;-82
2021/08/27 14:48:46;;;;;;;2.13;1.43;;;19.60;99.90;;;;;;20873073;28;20087;-82
2021/08/27 14:58:47;;;;;;;1.60;1.10;;;20.20;99.90;;;;;;20896529;28;20045;-80
2021/08/27 15:08:48;;;;;;;4.13;1.40;;;22.00;99.90;;;;;;20896825;28;20120;-83
2021/08/27 15:18:48;;;;;;;2.47;1.37;;;23.00;99.90;;;;;;20903226;28;20032;-80
2021/08/27 15:28:49;;;;;;;2.27;1.00;;;23.20;99.90;;;;;;20985461;28;20040;-79
2021/08/27 15:38:50;;;;;;;1.90;0.90;;;22.90;99.90;;;;;;20985158;28;20033;-81
2021/08/27 15:48:51;;;;;;;1.47;1.00;;;21.20;99.90;;;;;;20975965;28;20043;-80
2021/08/27 15:58:52;;;;;;;3.07;1.27;;;20.90;99.90;;;;;;20934980;28;20036;-82
2021/08/27 16:08:53;;;;;;;7.63;1.92;;;21.60;99.90;;;;;;21026336;28;20033;-81
2021/08/27 16:18:54;;;;;;;5.73;1.87;;;21.20;99.90;;;;;;21008977;28;20506;-82
2021/08/27 16:28:55;;;;;;;;;;;21.00;99.90;;;;;;21015337;28;20047;-80
2021/08/27 16:38:56;;;;;;;2.10;1.10;;;20.90;99.90;;;;;;21016008;28;19939;-81
2021/08/27 16:48:58;;;;;;;3.33;1.60;;;20.90;99.90;;;;;;21012293;28;20051;-82
2021/08/27 16:58:59;;;;;;;2.45;1.38;;;20.10;99.90;;;;;;21012222;28;20024;-82
2021/08/27 17:09:00;;;;;;;3.73;1.33;;;19.70;99.90;;;;;;21012588;28;20033;-81
2021/08/27 17:19:02;;;;;;;5.00;1.37;;;19.80;99.90;;;;;;20992222;28;20032;-79
2021/08/27 17:29:03;;;;;;;3.58;1.23;;;19.30;99.90;;;;;;21010651;28;20039;-82
2021/08/27 17:39:04;;;;;;;3.23;1.40;;;19.00;99.90;;;;;;21009493;28;20044;-78
2021/08/27 17:49:04;;;;;;;7.63;1.77;;;18.30;99.90;;;;;;21009847;28;20028;-79
2021/08/27 17:59:05;;;;;;;1.93;1.50;;;17.70;99.90;;;;;;20999345;28;20013;-79
2021/08/27 18:09:06;;;;;;;9.03;1.50;;;17.30;99.90;;;;;;21010323;28;20044;-81
2021/08/27 18:19:07;;;;;;;3.60;1.50;;;17.30;99.90;;;;;;21003652;28;20036;-80
2021/08/27 18:29:11;;;;;;;2.23;1.33;;;17.00;99.90;;;;;;21006621;28;20029;-83
2021/08/27 18:39:12;;;;;;;5.45;1.55;;;16.10;99.90;;;;;;21004807;28;20039;-84
2021/08/27 18:49:13;;;;;;;2.80;1.57;;;15.30;99.90;;;;;;21001740;28;20024;-79
2021/08/27 18:59:14;;;;;;;3.10;1.70;;;15.10;99.90;;;;;;20989183;28;20029;-84
2021/08/27 19:09:15;;;;;;;3.05;1.88;;;14.60;99.90;;;;;;20990317;28;20041;-80
2021/08/27 19:19:16;;;;;;;5.83;2.40;;;14.30;99.90;;;;;;21008085;28;20032;-82
2021/08/27 19:29:17;;;;;;;9.37;2.70;;;13.60;99.90;;;;;;21009845;28;20028;-83
2021/08/27 19:39:17;;;;;;;4.77;2.47;;;13.40;99.90;;;;;;21017576;28;20043;-84
2021/08/27 19:49:18;;;;;;;6.10;3.17;;;13.40;99.90;;;;;;21009123;28;20475;-84
2021/08/27 19:59:19;;;;;;;5.50;2.50;;;13.20;99.90;;;;;;20997098;28;20036;-80
2021/08/27 20:09:20;;;;;;;4.47;2.73;;;13.10;99.90;;;;;;21016883;28;20064;-79
2021/08/27 20:19:21;;;;;;;5.33;2.10;;;13.10;99.90;;;;;;21014939;28;20037;-80
2021/08/27 20:29:22;;;;;;;3.83;2.30;;;12.90;99.90;;;;;;20997817;28;20116;-83
2021/08/27 20:39:22;;;;;;;3.70;2.40;;;12.60;99.90;;;;;;21015770;28;20037;-80
2021/08/27 20:49:23;;;;;;;4.17;2.83;;;12.30;99.90;;;;;;21034548;28;20044;-84
2021/08/27 20:59:25;;;;;;;8.20;2.88;;;11.80;99.90;;;;;;21003910;28;20079;-81
2021/08/27 21:09:26;;;;;;;6.63;3.20;;;11.40;99.90;;;;;;21025208;28;20229;-84
2021/08/27 21:19:27;;;;;;;6.30;3.37;;;11.30;99.90;;;;;;21030067;28;20071;-83
2021/08/27 21:29:28;;;;;;;4.67;2.70;;;11.10;99.90;;;;;;21013184;28;20115;-83
2021/08/27 21:39:28;;;;;;;5.83;2.73;;;10.80;99.90;;;;;;21014757;28;20025;-80
2021/08/27 21:49:29;;;;;;;5.23;3.10;;;10.80;99.90;;;;;;21013255;28;20090;-81
2021/08/27 21:59:30;;;;;;;6.63;3.50;;;10.50;99.90;;;;;;21021033;28;20033;-81
2021/08/27 22:09:31;;;;;;;11.13;3.37;;;10.50;99.90;;;;;;21009495;28;20021;-80
2021/08/27 22:19:32;;;;;;;4.20;2.47;;;10.30;99.90;;;;;;20994867;28;20039;-83
2021/08/27 22:29:33;;;;;;;6.50;3.17;;;10.30;99.90;;;;;;20999520;28;20391;-82
2021/08/27 22:39:33;;;;;;;6.50;3.57;;;10.20;99.90;;;;;;21020965;28;20096;-84
2021/08/27 22:49:34;;;;;;;6.20;3.63;;;10.00;99.90;;;;;;21030128;28;20041;-79
2021/08/27 22:59:35;;;;;;;6.57;3.57;;;9.90;99.90;;;;;;21049959;28;20530;-79
2021/08/27 23:09:36;;;;;;;10.80;3.37;;;10.00;99.90;;;;;;21054481;28;20040;-79
2021/08/27 23:19:37;;;;;;;7.07;3.13;;;9.80;99.90;;;;;;21036347;28;20060;-79
2021/08/27 23:29:38;;;;;;;6.93;3.37;;;9.80;99.90;;;;;;20963562;28;20251;-79
2021/08/27 23:39:38;;;;;;;9.97;2.70;;;9.60;99.90;;;;;;20928901;28;20482;-79
2021/08/27 23:49:39;;;;;;;5.00;3.23;;;9.70;99.90;;;;;;20846550;28;20158;-79
2021/08/27 23:59:40;;;;;;;6.60;3.63;;;9.70;99.90;;;;;;20923126;28;20040;-79
